Terminal Aerodrome Forecast
Issued by NWS

Home | Current Version | Previous Version | Text Only | Print | Product List | Glossary On
Versions: 1 2 3 4 5 6 7 8 9 10 11 12
000
FTUS45 KREV 252337
TAFMMH
TAF
KMMH 252337Z 2600/2624 28011G20KT P6SM SCT120
     FM260400 32007KT P6SM FEW120
     FM262000 12010KT P6SM SCT120=

USA.gov is the U.S. government's official web portal to all federal, state and local government web resources and services.